Time;durP1;ratioP1;P1;durP2;ratioP2;P2;SDS_P1;SDS_P2;PMS_P1;PMS_P2;Temp;Humidity;BMP_temperature;BMP_pressure;BME280_temperature;BME280_humidity;BME280_pressure;Samples;Min_cycle;Max_cycle;Signal;HPM_P1;HPM_P2
2023/07/15 00:02:00;;;;;;;4.15;3.67;;;18.20;99.90;;;;;;6237601;28;20038;-80
2023/07/15 00:05:02;;;;;;;5.32;3.92;;;18.20;99.90;;;;;;6239706;28;20049;-80
2023/07/15 00:08:05;;;;;;;5.68;3.60;;;18.20;99.90;;;;;;6239248;28;20045;-80
2023/07/15 00:11:12;;;;;;;6.60;4.03;;;18.20;99.90;;;;;;6234477;28;20065;-80
2023/07/15 00:14:21;;;;;;;5.90;4.15;;;18.20;99.90;;;;;;6233977;28;20053;-80
2023/07/15 00:17:23;;;;;;;5.90;3.83;;;18.20;99.90;;;;;;6237431;28;20045;-79
2023/07/15 00:20:24;;;;;;;4.40;3.97;;;18.20;99.90;;;;;;6239811;28;20053;-80
2023/07/15 00:23:27;;;;;;;6.72;3.63;;;18.10;99.90;;;;;;6239227;28;20373;-81
2023/07/15 00:26:31;;;;;;;4.63;4.22;;;18.00;99.90;;;;;;6239247;28;20052;-80
2023/07/15 00:29:34;;;;;;;4.97;3.55;;;18.00;99.90;;;;;;6237217;28;20057;-80
2023/07/15 00:32:36;;;;;;;5.40;4.25;;;17.90;99.90;;;;;;6241681;28;20045;-80
2023/07/15 00:35:38;;;;;;;4.88;4.38;;;17.80;99.90;;;;;;6238358;28;20049;-79
2023/07/15 00:38:40;;;;;;;5.95;3.78;;;17.80;99.90;;;;;;6238305;28;20053;-83
2023/07/15 00:41:42;;;;;;;4.60;4.20;;;17.80;99.90;;;;;;6239906;28;20045;-83
2023/07/15 00:44:43;;;;;;;4.30;3.85;;;17.70;99.90;;;;;;6240226;28;20485;-82
2023/07/15 00:47:50;;;;;;;4.07;3.72;;;17.70;99.90;;;;;;6236379;28;20056;-80
2023/07/15 00:50:52;;;;;;;5.15;3.72;;;17.70;99.90;;;;;;6237376;28;20115;-80
2023/07/15 00:53:55;;;;;;;6.35;4.30;;;17.70;99.90;;;;;;6238277;28;20048;-80
2023/07/15 00:56:56;;;;;;;6.28;3.65;;;17.70;99.90;;;;;;6236839;28;20045;-79
2023/07/15 00:59:59;;;;;;;5.28;3.58;;;17.70;99.90;;;;;;6238683;28;20049;-80
2023/07/15 01:03:03;;;;;;;5.32;4.13;;;17.60;99.90;;;;;;6237992;28;20981;-82
2023/07/15 01:06:05;;;;;;;4.30;3.90;;;17.60;99.90;;;;;;6238828;28;20144;-82
2023/07/15 01:09:09;;;;;;;4.60;4.20;;;17.50;99.90;;;;;;6239454;28;20052;-81
2023/07/15 01:12:12;;;;;;;3.97;3.53;;;17.50;99.90;;;;;;6236665;28;20095;-79
2023/07/15 01:15:14;;;;;;;4.80;3.50;;;17.50;99.90;;;;;;6237633;28;20053;-80
2023/07/15 01:18:17;;;;;;;4.63;3.20;;;17.50;99.90;;;;;;6238054;28;20042;-80
2023/07/15 01:21:20;;;;;;;4.38;3.60;;;17.50;99.90;;;;;;6240814;28;20045;-81
2023/07/15 01:24:25;;;;;;;5.25;4.20;;;17.40;99.90;;;;;;6238351;28;20037;-79
2023/07/15 01:27:27;;;;;;;4.72;3.55;;;17.50;99.90;;;;;;6245035;28;20463;-81
2023/07/15 01:30:29;;;;;;;4.60;4.20;;;17.40;99.90;;;;;;6244702;28;20037;-81
2023/07/15 01:33:31;;;;;;;4.40;3.83;;;17.40;99.90;;;;;;6245198;28;20057;-82
2023/07/15 01:36:32;;;;;;;5.82;4.95;;;17.40;99.90;;;;;;6244563;28;20076;-81
2023/07/15 01:39:35;;;;;;;8.07;4.20;;;17.40;99.90;;;;;;6242523;28;20049;-79
2023/07/15 01:42:38;;;;;;;4.47;3.95;;;17.40;99.90;;;;;;6244356;28;20046;-79
2023/07/15 01:45:40;;;;;;;4.80;4.07;;;17.40;99.90;;;;;;6244309;28;20051;-81
2023/07/15 01:48:41;;;;;;;4.25;3.80;;;17.40;99.90;;;;;;6244685;28;20045;-81
2023/07/15 01:51:43;;;;;;;9.70;3.70;;;17.40;99.90;;;;;;6242647;28;20053;-81
2023/07/15 01:54:46;;;;;;;6.05;3.88;;;17.40;99.90;;;;;;6244576;28;20046;-82
2023/07/15 01:57:48;;;;;;;4.63;4.22;;;17.40;99.90;;;;;;6241527;28;20048;-80
2023/07/15 02:00:49;;;;;;;6.80;4.25;;;17.30;99.90;;;;;;6244633;28;20045;-81
2023/07/15 02:03:51;;;;;;;6.13;4.03;;;17.40;99.90;;;;;;6244288;28;20048;-82
2023/07/15 02:06:53;;;;;;;4.60;3.67;;;17.30;99.90;;;;;;6244160;28;20048;-80
2023/07/15 02:09:56;;;;;;;4.05;3.55;;;17.20;99.90;;;;;;6241982;28;20042;-81
2023/07/15 02:12:57;;;;;;;6.03;4.25;;;17.20;99.90;;;;;;6244298;28;20042;-82
2023/07/15 02:15:59;;;;;;;6.75;3.55;;;17.10;99.90;;;;;;6247363;28;20056;-81
2023/07/15 02:19:01;;;;;;;4.20;3.80;;;17.10;99.90;;;;;;6249492;28;20053;-83
2023/07/15 02:22:03;;;;;;;4.55;4.10;;;17.00;99.90;;;;;;6249721;28;20041;-80
2023/07/15 02:25:07;;;;;;;6.03;4.20;;;17.10;99.90;;;;;;6250873;28;20052;-82
2023/07/15 02:28:08;;;;;;;4.68;4.20;;;17.00;99.90;;;;;;6251252;28;20050;-81
2023/07/15 02:31:10;;;;;;;3.50;3.10;;;17.00;99.90;;;;;;6250866;28;20056;-83
2023/07/15 02:34:13;;;;;;;4.20;3.53;;;17.00;99.90;;;;;;6252244;28;20045;-81
2023/07/15 02:37:14;;;;;;;4.30;3.90;;;17.00;99.90;;;;;;6252454;28;20080;-82
2023/07/15 02:40:17;;;;;;;5.05;3.38;;;17.00;99.90;;;;;;6251721;28;20397;-83
2023/07/15 02:43:19;;;;;;;6.20;3.28;;;17.10;99.90;;;;;;6251613;28;20129;-83
2023/07/15 02:46:21;;;;;;;4.07;3.00;;;17.10;99.90;;;;;;6251885;28;20087;-81
2023/07/15 02:49:23;;;;;;;7.78;3.40;;;17.10;99.90;;;;;;6251336;28;20045;-81
2023/07/15 02:52:25;;;;;;;4.40;4.00;;;17.20;99.90;;;;;;6250426;28;20053;-83
2023/07/15 02:55:28;;;;;;;4.75;4.07;;;17.20;99.90;;;;;;6251481;28;20053;-82
2023/07/15 02:58:30;;;;;;;4.80;3.80;;;17.30;99.90;;;;;;6250771;28;20052;-81
2023/07/15 03:01:31;;;;;;;4.43;4.03;;;17.30;99.90;;;;;;6251701;28;20060;-81
2023/07/15 03:04:33;;;;;;;6.75;3.85;;;17.30;99.90;;;;;;6250456;28;20049;-82
2023/07/15 03:07:35;;;;;;;9.10;4.65;;;17.30;99.90;;;;;;6250215;28;20497;-80
2023/07/15 03:10:38;;;;;;;4.03;3.22;;;17.30;99.90;;;;;;6251116;28;20123;-80
2023/07/15 03:13:40;;;;;;;9.88;4.55;;;17.40;99.90;;;;;;6251206;28;20132;-81
2023/07/15 03:16:41;;;;;;;5.80;3.70;;;17.40;99.90;;;;;;6251333;28;20056;-80
2023/07/15 03:19:43;;;;;;;6.10;4.25;;;17.40;99.90;;;;;;6250924;28;20080;-81
2023/07/15 03:22:45;;;;;;;3.85;3.42;;;17.40;99.90;;;;;;6250965;28;20045;-79
2023/07/15 03:25:48;;;;;;;4.43;3.78;;;17.50;99.90;;;;;;6250649;28;20053;-79
2023/07/15 03:28:49;;;;;;;3.50;3.20;;;17.50;99.90;;;;;;6251043;28;20389;-82
2023/07/15 03:31:51;;;;;;;7.75;4.30;;;17.60;99.90;;;;;;6250408;28;20126;-81
2023/07/15 03:34:53;;;;;;;4.50;4.10;;;17.60;99.90;;;;;;6250227;28;20073;-81
2023/07/15 03:37:54;;;;;;;4.45;4.00;;;17.60;99.90;;;;;;6250017;28;20057;-81
2023/07/15 03:40:57;;;;;;;4.05;3.65;;;17.60;99.90;;;;;;6251251;28;20046;-82
2023/07/15 03:43:59;;;;;;;3.38;3.10;;;17.50;99.90;;;;;;6250675;28;20045;-82
2023/07/15 03:47:01;;;;;;;5.20;3.70;;;17.50;99.90;;;;;;6249540;28;20053;-81
2023/07/15 03:50:03;;;;;;;3.67;3.15;;;17.50;99.90;;;;;;6249639;28;20041;-82
2023/07/15 03:53:05;;;;;;;3.72;3.42;;;17.50;99.90;;;;;;6250281;28;20085;-81
2023/07/15 03:56:08;;;;;;;6.55;4.07;;;17.50;99.90;;;;;;6249140;28;20042;-81
2023/07/15 03:59:10;;;;;;;6.13;3.90;;;17.60;99.90;;;;;;6241355;28;20121;-82
2023/07/15 04:02:12;;;;;;;3.65;3.35;;;17.50;99.90;;;;;;6245038;28;20045;-81
2023/07/15 04:05:13;;;;;;;4.55;4.13;;;17.60;99.90;;;;;;6250419;28;20045;-81
2023/07/15 04:08:15;;;;;;;4.47;3.95;;;17.60;99.90;;;;;;6250577;28;20416;-81
2023/07/15 04:11:19;;;;;;;4.78;3.53;;;17.60;99.90;;;;;;6250279;28;20546;-79
2023/07/15 04:14:20;;;;;;;12.10;3.70;;;17.60;99.90;;;;;;6250419;28;20048;-81
2023/07/15 04:17:22;;;;;;;4.55;3.80;;;17.60;99.90;;;;;;6251012;28;20053;-82
2023/07/15 04:20:24;;;;;;;4.72;3.65;;;17.60;99.90;;;;;;6250487;28;20467;-82
2023/07/15 04:23:25;;;;;;;4.20;3.65;;;17.60;99.90;;;;;;6250607;28;20505;-80
2023/07/15 04:26:28;;;;;;;4.32;3.92;;;17.70;99.90;;;;;;6250741;28;20037;-82
2023/07/15 04:29:31;;;;;;;5.00;3.88;;;17.80;99.90;;;;;;6250385;28;20053;-82
2023/07/15 04:32:33;;;;;;;5.10;4.03;;;17.90;99.90;;;;;;6249917;28;20049;-81
2023/07/15 04:35:34;;;;;;;3.60;3.20;;;18.00;99.90;;;;;;6249709;28;20048;-82
2023/07/15 04:38:36;;;;;;;3.92;3.40;;;18.20;99.90;;;;;;6249158;28;20356;-80
2023/07/15 04:41:39;;;;;;;7.50;3.90;;;18.30;99.90;;;;;;6250430;28;20500;-80
2023/07/15 04:44:41;;;;;;;6.30;3.08;;;18.40;99.90;;;;;;6252051;28;20046;-82
2023/07/15 04:47:43;;;;;;;9.93;3.80;;;18.50;99.90;;;;;;6250978;28;20069;-80
2023/07/15 04:50:46;;;;;;;3.75;3.35;;;18.70;99.90;;;;;;6249942;28;20056;-81
2023/07/15 04:53:47;;;;;;;4.20;3.78;;;18.80;99.90;;;;;;6249802;28;20049;-81
2023/07/15 04:56:51;;;;;;;6.43;3.63;;;19.00;99.90;;;;;;6250468;28;20052;-82
2023/07/15 04:59:53;;;;;;;3.75;3.40;;;19.10;99.90;;;;;;6249259;28;20048;-82
2023/07/15 05:02:55;;;;;;;8.00;3.88;;;19.40;99.90;;;;;;6249504;28;20052;-81
2023/07/15 05:05:57;;;;;;;4.57;3.15;;;19.70;99.90;;;;;;6249577;28;20045;-81
2023/07/15 05:08:58;;;;;;;3.50;2.97;;;20.10;99.90;;;;;;6249211;28;20057;-82
2023/07/15 05:12:01;;;;;;;7.55;3.00;;;20.40;99.90;;;;;;6249169;28;20501;-81
2023/07/15 05:15:04;;;;;;;3.40;2.97;;;20.60;99.90;;;;;;6249411;28;20049;-82
2023/07/15 05:18:07;;;;;;;3.90;3.45;;;20.80;99.90;;;;;;6248671;28;20049;-82
2023/07/15 05:21:09;;;;;;;4.38;2.78;;;20.90;99.90;;;;;;6249921;28;20420;-80
2023/07/15 05:24:10;;;;;;;3.55;2.80;;;21.10;99.90;;;;;;6248533;28;20046;-81
2023/07/15 05:27:14;;;;;;;4.50;3.08;;;21.50;99.90;;;;;;6248825;28;20052;-81
2023/07/15 05:30:15;;;;;;;3.38;2.47;;;21.90;99.90;;;;;;6248585;28;20053;-82
2023/07/15 05:33:17;;;;;;;6.13;3.28;;;22.40;99.90;;;;;;6248103;28;20057;-82
2023/07/15 05:36:19;;;;;;;5.15;3.15;;;22.90;99.90;;;;;;6248779;28;20397;-82
2023/07/15 05:39:21;;;;;;;4.40;2.70;;;23.50;99.90;;;;;;6248651;28;20163;-81
2023/07/15 05:42:25;;;;;;;3.15;2.85;;;24.10;99.90;;;;;;6248043;28;20142;-82
2023/07/15 05:45:26;;;;;;;7.03;2.33;;;25.40;99.40;;;;;;6249157;28;20612;-83
2023/07/15 05:48:28;;;;;;;4.30;2.42;;;27.00;95.80;;;;;;6248953;28;20497;-82
2023/07/15 05:51:30;;;;;;;3.30;2.38;;;27.80;91.80;;;;;;6248875;28;20508;-82
2023/07/15 05:54:32;;;;;;;3.47;2.03;;;27.60;88.60;;;;;;6247438;28;20103;-83
2023/07/15 05:57:35;;;;;;;7.18;2.58;;;27.90;86.50;;;;;;6248421;28;20054;-82
2023/07/15 06:00:38;;;;;;;2.47;2.00;;;28.70;83.50;;;;;;6248173;28;20049;-83
2023/07/15 06:03:40;;;;;;;3.45;2.40;;;29.30;80.00;;;;;;6248210;28;20141;-83
2023/07/15 06:06:42;;;;;;;4.32;2.33;;;29.90;76.40;;;;;;6248585;28;20041;-81
2023/07/15 06:09:43;;;;;;;2.72;2.25;;;30.50;73.10;;;;;;6248481;28;20107;-83
2023/07/15 06:12:47;;;;;;;4.30;2.42;;;31.10;69.70;;;;;;6249562;28;20050;-82
2023/07/15 06:15:49;;;;;;;4.20;2.47;;;30.70;67.30;;;;;;6268743;28;20049;-80
2023/07/15 06:18:51;;;;;;;2.92;2.28;;;29.90;67.70;;;;;;6280651;28;20068;-84
2023/07/15 06:21:53;;;;;;;8.93;2.85;;;29.20;68.40;;;;;;6252831;28;20046;-83
2023/07/15 06:24:54;;;;;;;4.28;3.15;;;28.50;69.00;;;;;;6258004;28;20066;-81
2023/07/15 06:27:57;;;;;;;6.50;2.75;;;28.20;69.90;;;;;;6255512;28;20421;-81
2023/07/15 06:31:03;;;;;;;9.98;3.65;;;28.00;70.50;;;;;;6255452;28;20056;-80
2023/07/15 06:34:04;;;;;;;4.20;2.95;;;27.90;70.40;;;;;;6255532;28;20051;-81
2023/07/15 06:37:06;;;;;;;3.53;2.58;;;27.90;70.00;;;;;;6256210;28;20053;-81
2023/07/15 06:40:10;;;;;;;4.93;2.60;;;27.90;69.30;;;;;;6257495;28;20119;-82
2023/07/15 06:43:13;;;;;;;2.58;2.05;;;28.00;69.20;;;;;;6257328;28;20423;-82
2023/07/15 06:46:15;;;;;;;3.20;2.00;;;28.00;69.10;;;;;;6256765;28;20042;-81
2023/07/15 06:49:16;;;;;;;3.45;2.45;;;28.20;68.90;;;;;;6256917;28;20056;-82
2023/07/15 06:52:18;;;;;;;6.72;3.75;;;28.40;68.30;;;;;;6256806;28;20050;-81
2023/07/15 06:55:20;;;;;;;10.85;3.30;;;28.50;68.10;;;;;;6258586;28;20053;-82
2023/07/15 06:58:23;;;;;;;5.53;2.33;;;28.50;67.60;;;;;;6261595;28;20041;-84
2023/07/15 07:01:25;;;;;;;4.72;2.88;;;28.70;67.10;;;;;;6258460;28;20050;-81
2023/07/15 07:04:27;;;;;;;6.03;2.30;;;28.70;66.80;;;;;;6255239;28;20460;-81
2023/07/15 07:07:28;;;;;;;3.42;2.72;;;28.60;66.50;;;;;;6255722;28;20041;-82
2023/07/15 07:10:30;;;;;;;2.85;2.33;;;28.40;66.30;;;;;;6255150;28;20420;-81
2023/07/15 07:13:33;;;;;;;8.48;2.75;;;28.30;66.50;;;;;;6255476;28;20058;-81
2023/07/15 07:16:35;;;;;;;3.35;2.38;;;28.10;66.90;;;;;;6254043;28;20056;-82
2023/07/15 07:19:37;;;;;;;7.93;3.58;;;27.90;67.20;;;;;;6254151;28;20053;-82
2023/07/15 07:22:38;;;;;;;11.30;3.53;;;27.80;67.70;;;;;;6255459;28;20041;-82
2023/07/15 07:25:42;;;;;;;4.18;3.20;;;27.80;68.30;;;;;;6256896;28;20053;-82
2023/07/15 07:28:45;;;;;;;5.65;3.20;;;27.70;69.00;;;;;;6258692;28;20060;-82
2023/07/15 07:31:47;;;;;;;2.55;2.28;;;27.70;69.40;;;;;;6257110;28;20045;-78
2023/07/15 07:34:49;;;;;;;2.25;1.77;;;27.60;69.50;;;;;;6257475;28;20045;-81
2023/07/15 07:37:50;;;;;;;4.25;2.58;;;27.50;69.50;;;;;;6255686;28;20064;-82
2023/07/15 07:40:52;;;;;;;4.00;3.03;;;27.40;69.90;;;;;;6255689;28;20060;-82
2023/07/15 07:43:55;;;;;;;8.82;4.25;;;27.30;70.60;;;;;;6251422;28;20049;-79
2023/07/15 07:46:57;;;;;;;3.55;2.78;;;27.30;71.40;;;;;;6250719;28;20523;-78
2023/07/15 07:49:59;;;;;;;5.63;3.25;;;27.50;71.70;;;;;;6249371;28;20489;-80
2023/07/15 07:53:00;;;;;;;4.22;3.83;;;27.80;71.60;;;;;;6249368;28;20056;-80
2023/07/15 07:56:02;;;;;;;5.70;3.45;;;28.10;71.20;;;;;;6249156;28;20397;-79
2023/07/15 07:59:05;;;;;;;4.68;2.60;;;28.60;70.70;;;;;;6248954;28;20057;-79
2023/07/15 08:02:07;;;;;;;3.10;2.80;;;29.00;69.50;;;;;;6248549;28;20060;-80
2023/07/15 08:05:09;;;;;;;2.60;2.40;;;29.30;67.70;;;;;;6249669;28;20049;-79
2023/07/15 08:08:12;;;;;;;3.78;2.63;;;29.50;66.60;;;;;;6248567;28;20056;-80
2023/07/15 08:11:13;;;;;;;4.90;2.78;;;29.50;66.00;;;;;;6248873;28;20053;-80
2023/07/15 08:14:17;;;;;;;3.60;2.55;;;29.50;65.70;;;;;;6246944;28;20052;-81
2023/07/15 08:17:19;;;;;;;4.45;3.05;;;29.50;65.70;;;;;;6250060;28;20052;-81
2023/07/15 08:20:21;;;;;;;5.97;3.30;;;29.50;65.60;;;;;;6249485;28;20051;-80
2023/07/15 08:23:23;;;;;;;3.15;2.67;;;29.60;65.60;;;;;;6249211;28;20045;-80
2023/07/15 08:26:25;;;;;;;6.32;3.90;;;29.80;65.30;;;;;;6249551;28;20045;-79
2023/07/15 08:29:28;;;;;;;5.75;3.50;;;30.10;64.60;;;;;;6247160;28;20052;-80
2023/07/15 08:32:30;;;;;;;4.45;3.25;;;30.40;64.00;;;;;;6249321;28;20052;-80
2023/07/15 08:35:32;;;;;;;6.95;2.88;;;30.60;63.40;;;;;;6248165;28;20524;-80
2023/07/15 08:38:34;;;;;;;5.25;3.75;;;30.70;63.20;;;;;;6247675;28;20045;-80
2023/07/15 08:41:36;;;;;;;3.30;3.00;;;30.80;62.90;;;;;;6250151;28;20064;-81
2023/07/15 08:44:39;;;;;;;4.75;4.35;;;31.00;62.80;;;;;;6249760;28;20050;-80
2023/07/15 08:47:44;;;;;;;3.97;3.58;;;31.00;62.80;;;;;;6247550;28;20752;-80
2023/07/15 08:50:47;;;;;;;4.10;3.03;;;31.00;62.70;;;;;;6247977;28;20053;-80
2023/07/15 08:53:50;;;;;;;4.38;3.97;;;31.00;62.50;;;;;;6247672;28;20056;-80
2023/07/15 08:56:52;;;;;;;4.45;3.45;;;31.00;62.40;;;;;;6247694;28;20404;-80
2023/07/15 08:59:56;;;;;;;7.57;3.63;;;31.00;62.90;;;;;;6247509;28;20045;-80
2023/07/15 09:02:58;;;;;;;5.50;3.38;;;31.10;63.30;;;;;;6247284;28;20045;-82
2023/07/15 09:06:01;;;;;;;9.55;3.58;;;31.20;62.90;;;;;;6248457;28;20049;-80
2023/07/15 09:09:03;;;;;;;3.95;3.60;;;31.30;62.80;;;;;;6234961;28;20052;-80
2023/07/15 09:12:07;;;;;;;8.27;3.95;;;31.40;63.10;;;;;;6237777;28;20597;-79
2023/07/15 09:15:12;;;;;;;10.43;3.35;;;31.30;62.60;;;;;;6242145;28;20041;-79
2023/07/15 09:18:14;;;;;;;8.23;4.07;;;31.20;63.10;;;;;;6241525;28;20060;-80
2023/07/15 09:21:17;;;;;;;6.72;4.13;;;31.10;62.90;;;;;;6244913;28;20049;-80
2023/07/15 09:24:19;;;;;;;5.60;3.28;;;31.00;63.10;;;;;;6243343;28;20415;-80
2023/07/15 09:27:21;;;;;;;5.28;3.38;;;30.70;63.10;;;;;;6242265;28;20420;-80
2023/07/15 09:30:24;;;;;;;5.35;3.58;;;30.50;63.00;;;;;;6240861;28;20057;-80
2023/07/15 09:33:31;;;;;;;7.93;3.65;;;30.40;63.30;;;;;;6243303;28;20049;-82
2023/07/15 09:36:33;;;;;;;7.40;3.47;;;30.30;63.50;;;;;;6239392;28;20397;-80
2023/07/15 09:39:36;;;;;;;9.85;3.15;;;30.10;63.80;;;;;;6235698;28;20045;-80
2023/07/15 09:42:51;;;;;;;7.00;3.00;;;30.00;64.70;;;;;;6235965;28;20049;-80
2023/07/15 09:45:54;;;;;;;4.20;2.78;;;30.00;65.40;;;;;;6235862;28;20045;-80
2023/07/15 09:48:57;;;;;;;5.78;3.30;;;30.00;64.80;;;;;;6239305;28;20054;-80
2023/07/15 09:52:00;;;;;;;3.95;3.22;;;30.10;64.00;;;;;;6240008;28;20050;-80
2023/07/15 09:55:03;;;;;;;6.80;3.40;;;30.30;63.30;;;;;;6246333;28;20053;-80
2023/07/15 09:58:11;;;;;;;5.90;2.92;;;30.50;62.80;;;;;;6249260;28;20041;-80
2023/07/15 10:01:21;;;;;;;7.22;2.72;;;30.70;62.80;;;;;;6252347;28;20041;-79
2023/07/15 10:04:26;;;;;;;3.17;2.75;;;31.10;62.10;;;;;;6251568;28;20045;-80
2023/07/15 10:07:31;;;;;;;4.00;2.92;;;31.60;61.10;;;;;;6243235;28;20041;-80
2023/07/15 10:10:33;;;;;;;4.13;2.67;;;32.00;60.60;;;;;;6252412;28;20042;-80
2023/07/15 10:13:35;;;;;;;6.05;2.95;;;32.40;59.40;;;;;;6252430;28;20053;-80
2023/07/15 10:16:39;;;;;;;4.05;2.75;;;32.70;58.30;;;;;;6252467;28;20382;-80
2023/07/15 10:19:42;;;;;;;5.85;2.55;;;32.90;57.50;;;;;;6252042;28;20050;-80
2023/07/15 10:22:44;;;;;;;4.97;2.67;;;32.80;57.60;;;;;;6251726;28;20134;-80
2023/07/15 10:25:58;;;;;;;3.30;2.63;;;32.80;57.00;;;;;;6251239;28;20049;-81
2023/07/15 10:29:02;;;;;;;6.63;3.67;;;32.70;56.50;;;;;;6253143;28;20053;-81
2023/07/15 10:32:13;;;;;;;6.88;3.30;;;32.60;56.50;;;;;;6251989;28;20049;-80
2023/07/15 10:35:20;;;;;;;6.97;3.03;;;32.40;56.40;;;;;;6251762;28;20051;-80
2023/07/15 10:38:27;;;;;;;4.28;3.10;;;32.30;56.50;;;;;;6252014;28;20066;-80
2023/07/15 10:41:41;;;;;;;5.45;2.53;;;32.30;56.50;;;;;;6252274;28;20049;-80
2023/07/15 10:44:45;;;;;;;7.78;3.35;;;32.30;56.50;;;;;;6251211;28;20053;-80
2023/07/15 10:47:48;;;;;;;4.53;3.05;;;32.10;56.50;;;;;;6250690;28;20519;-80
2023/07/15 10:50:54;;;;;;;5.60;3.08;;;31.80;56.60;;;;;;6250863;28;20516;-80
2023/07/15 10:53:55;;;;;;;4.47;3.45;;;31.70;56.90;;;;;;6251271;28;20053;-81
2023/07/15 10:56:57;;;;;;;3.85;2.92;;;31.60;57.00;;;;;;6251713;28;20048;-80
2023/07/15 11:00:07;;;;;;;10.90;2.70;;;31.30;57.00;;;;;;6250145;28;20049;-80
2023/07/15 11:03:10;;;;;;;4.75;3.40;;;31.00;57.60;;;;;;6249786;28;20069;-81
2023/07/15 11:06:12;;;;;;;2.80;2.60;;;30.90;58.00;;;;;;6250928;28;20053;-81
2023/07/15 11:09:15;;;;;;;7.03;2.88;;;31.00;58.00;;;;;;6251338;28;20416;-80
2023/07/15 11:12:17;;;;;;;4.25;2.67;;;31.00;57.80;;;;;;6250495;28;20057;-81
2023/07/15 11:15:20;;;;;;;6.32;3.00;;;31.20;57.60;;;;;;6250628;28;20052;-80
2023/07/15 11:18:25;;;;;;;2.95;2.60;;;31.10;57.60;;;;;;6251015;28;20041;-80
2023/07/15 11:21:27;;;;;;;4.22;2.83;;;31.30;57.70;;;;;;6251624;28;20053;-80
2023/07/15 11:24:29;;;;;;;4.28;2.75;;;31.40;57.80;;;;;;6250877;28;20049;-80
2023/07/15 11:27:30;;;;;;;3.42;3.13;;;31.50;57.70;;;;;;6249711;28;20049;-81
2023/07/15 11:30:36;;;;;;;4.47;2.45;;;31.80;57.40;;;;;;6250748;28;20041;-81
2023/07/15 11:33:39;;;;;;;3.97;3.08;;;32.00;57.00;;;;;;6250346;28;20049;-80
2023/07/15 11:36:41;;;;;;;3.85;2.97;;;32.10;57.10;;;;;;6250445;28;20045;-80
2023/07/15 11:39:44;;;;;;;6.25;3.10;;;32.40;57.10;;;;;;6249937;28;20140;-81
2023/07/15 11:42:46;;;;;;;3.53;3.15;;;33.10;56.40;;;;;;6250141;28;20424;-80
2023/07/15 11:45:48;;;;;;;6.13;3.88;;;33.70;55.70;;;;;;6251121;28;20056;-81
2023/07/15 11:48:51;;;;;;;4.38;2.97;;;33.90;54.90;;;;;;6251068;28;20076;-81
2023/07/15 11:51:56;;;;;;;5.35;2.72;;;33.80;54.60;;;;;;6250798;28;20053;-81
2023/07/15 11:54:57;;;;;;;4.00;2.72;;;33.70;54.50;;;;;;6250226;28;20060;-81
2023/07/15 11:57:59;;;;;;;4.95;2.90;;;33.60;54.50;;;;;;6250019;28;20120;-81
2023/07/15 12:01:01;;;;;;;5.32;3.42;;;33.60;54.60;;;;;;6247167;28;20179;-81
2023/07/15 12:04:12;;;;;;;18.60;3.65;;;33.60;54.60;;;;;;6242896;28;20056;-80
2023/07/15 12:07:14;;;;;;;3.85;3.17;;;33.50;54.70;;;;;;6267409;28;20128;-81
2023/07/15 12:10:17;;;;;;;3.28;2.90;;;33.50;54.80;;;;;;6270934;28;20047;-80
2023/07/15 12:13:19;;;;;;;6.82;3.72;;;33.50;54.70;;;;;;6244788;28;20480;-80
2023/07/15 12:16:21;;;;;;;3.88;3.17;;;33.40;54.40;;;;;;6246632;28;20045;-80
2023/07/15 12:19:25;;;;;;;7.90;3.78;;;33.30;54.50;;;;;;6249804;28;20097;-79
2023/07/15 12:22:27;;;;;;;6.95;3.65;;;33.20;55.00;;;;;;6261881;28;20045;-80
2023/07/15 12:25:29;;;;;;;10.73;3.60;;;33.10;55.60;;;;;;6258197;28;20060;-79
2023/07/15 12:28:30;;;;;;;4.95;3.03;;;32.90;56.00;;;;;;6238084;28;20556;-80
2023/07/15 12:31:32;;;;;;;25.90;4.97;;;32.80;56.80;;;;;;6236067;28;20053;-80
2023/07/15 12:34:35;;;;;;;5.53;3.10;;;32.60;57.30;;;;;;6236924;28;20049;-80
2023/07/15 12:37:38;;;;;;;9.75;3.00;;;32.60;57.80;;;;;;6236135;28;20643;-80
2023/07/15 12:40:40;;;;;;;7.05;3.55;;;32.60;57.60;;;;;;6237932;28;20057;-80
2023/07/15 12:43:42;;;;;;;12.30;3.08;;;32.70;57.30;;;;;;6235024;28;20061;-80
2023/07/15 12:46:44;;;;;;;4.43;3.28;;;33.00;56.80;;;;;;6236697;28;20137;-79
2023/07/15 12:49:47;;;;;;;4.38;3.15;;;33.70;56.50;;;;;;6233155;28;20049;-79
2023/07/15 12:52:49;;;;;;;6.35;3.33;;;34.30;54.90;;;;;;6233939;28;20053;-82
2023/07/15 12:55:52;;;;;;;5.10;3.13;;;34.70;53.70;;;;;;6233676;28;20045;-78
2023/07/15 12:58:53;;;;;;;3.28;2.97;;;35.10;53.40;;;;;;6235420;28;20059;-80
2023/07/15 13:01:55;;;;;;;5.03;2.80;;;35.40;52.80;;;;;;6233173;28;20057;-81
2023/07/15 13:04:58;;;;;;;5.80;3.17;;;35.70;52.20;;;;;;6238876;28;20417;-81
2023/07/15 13:08:00;;;;;;;3.00;2.65;;;36.20;51.40;;;;;;6232469;28;20064;-79
2023/07/15 13:11:01;;;;;;;7.82;3.05;;;36.70;51.10;;;;;;6235193;28;20046;-79
2023/07/15 13:14:03;;;;;;;3.50;3.05;;;36.90;49.60;;;;;;6237266;28;20053;-79
2023/07/15 13:17:05;;;;;;;6.93;3.50;;;37.10;49.10;;;;;;6237818;28;20503;-79
2023/07/15 13:20:10;;;;;;;7.10;3.42;;;37.30;48.90;;;;;;6239253;28;20065;-80
2023/07/15 13:23:11;;;;;;;6.95;3.10;;;37.50;48.70;;;;;;6242518;28;20295;-80
2023/07/15 13:26:13;;;;;;;6.85;2.95;;;37.60;47.90;;;;;;6242826;28;20046;-80
2023/07/15 13:29:15;;;;;;;7.72;2.90;;;37.20;47.70;;;;;;6241872;28;20057;-80
2023/07/15 13:32:16;;;;;;;5.78;3.10;;;37.00;48.00;;;;;;6238574;28;20037;-80
2023/07/15 13:35:19;;;;;;;8.65;3.63;;;37.00;48.30;;;;;;6241118;28;20049;-80
2023/07/15 13:38:21;;;;;;;8.15;3.25;;;37.20;48.10;;;;;;6245035;28;20064;-78
2023/07/15 13:41:23;;;;;;;5.35;3.17;;;37.00;48.10;;;;;;6238683;28;20405;-80
2023/07/15 13:44:24;;;;;;;10.20;3.67;;;36.60;48.40;;;;;;6238210;28;20424;-80
2023/07/15 13:47:26;;;;;;;7.03;3.75;;;36.40;48.40;;;;;;6240895;28;20405;-81
2023/07/15 13:50:29;;;;;;;8.20;3.90;;;36.00;48.80;;;;;;6239194;28;20065;-80
2023/07/15 13:53:31;;;;;;;3.70;3.33;;;35.60;48.90;;;;;;6241624;28;20067;-81
2023/07/15 13:56:33;;;;;;;4.85;3.05;;;35.30;49.40;;;;;;6239393;28;20049;-80
2023/07/15 13:59:35;;;;;;;3.38;3.00;;;34.90;50.00;;;;;;6239856;28;20046;-80
2023/07/15 14:02:37;;;;;;;3.88;3.55;;;34.70;50.60;;;;;;6241896;28;20076;-80
2023/07/15 14:05:40;;;;;;;5.75;3.13;;;34.60;50.80;;;;;;6240774;28;20092;-79
2023/07/15 14:08:41;;;;;;;5.80;3.65;;;34.60;51.10;;;;;;6242980;28;20053;-79
2023/07/15 14:11:44;;;;;;;5.32;3.95;;;34.60;50.60;;;;;;6243308;28;20049;-79
2023/07/15 14:14:46;;;;;;;9.13;4.35;;;34.60;50.80;;;;;;6244699;28;20052;-80
2023/07/15 14:17:48;;;;;;;5.05;3.78;;;34.60;51.20;;;;;;6242248;28;20061;-79
2023/07/15 14:20:51;;;;;;;7.25;4.05;;;34.60;51.10;;;;;;6245619;28;20061;-81
2023/07/15 14:23:53;;;;;;;11.02;2.95;;;34.40;51.20;;;;;;6244806;28;20056;-81
2023/07/15 14:26:55;;;;;;;7.85;3.95;;;34.30;51.60;;;;;;6247322;28;20053;-80
2023/07/15 14:29:56;;;;;;;7.88;3.35;;;34.00;52.10;;;;;;6242200;28;20361;-79
2023/07/15 14:32:58;;;;;;;7.95;3.90;;;33.70;52.40;;;;;;6244607;28;20505;-80
2023/07/15 14:36:01;;;;;;;4.57;3.35;;;33.30;52.80;;;;;;6244087;28;20045;-79
2023/07/15 14:39:03;;;;;;;5.68;3.70;;;32.90;53.20;;;;;;6244370;28;20427;-79
2023/07/15 14:42:05;;;;;;;6.93;3.28;;;32.60;53.90;;;;;;6243314;28;20475;-80
2023/07/15 14:45:07;;;;;;;9.60;4.63;;;32.40;54.70;;;;;;6244794;28;20170;-80
2023/07/15 14:48:09;;;;;;;7.22;3.95;;;32.10;56.30;;;;;;6249232;28;20041;-82
2023/07/15 14:51:12;;;;;;;11.77;4.38;;;31.70;58.00;;;;;;6247995;28;20148;-81
2023/07/15 14:54:14;;;;;;;11.10;4.50;;;31.40;60.60;;;;;;6251676;28;20488;-80
2023/07/15 14:57:16;;;;;;;7.35;4.60;;;31.00;63.40;;;;;;6249155;28;21528;-82
2023/07/15 15:00:21;;;;;;;7.53;4.10;;;30.70;65.90;;;;;;6250452;28;20165;-82
2023/07/15 15:03:23;;;;;;;6.72;4.72;;;30.50;68.20;;;;;;6249776;28;20049;-81
2023/07/15 15:06:26;;;;;;;9.20;4.80;;;30.40;69.50;;;;;;6247950;28;20046;-82
2023/07/15 15:09:28;;;;;;;8.40;4.18;;;30.50;69.90;;;;;;6246937;28;20116;-82
2023/07/15 15:12:29;;;;;;;5.78;3.78;;;30.80;69.20;;;;;;6247460;28;20056;-82
2023/07/15 15:15:31;;;;;;;8.48;3.90;;;31.00;68.30;;;;;;6247938;28;20101;-81
2023/07/15 15:18:33;;;;;;;8.60;4.65;;;31.30;66.90;;;;;;6246538;28;20048;-81
2023/07/15 15:21:36;;;;;;;7.95;4.68;;;31.60;65.90;;;;;;6247049;28;20050;-81
2023/07/15 15:24:38;;;;;;;9.65;4.07;;;32.00;65.10;;;;;;6247697;28;20060;-83
2023/07/15 15:27:39;;;;;;;9.30;5.38;;;32.40;64.00;;;;;;6249226;28;20044;-81
2023/07/15 15:30:41;;;;;;;5.90;3.83;;;32.60;63.40;;;;;;6245504;28;20045;-81
2023/07/15 15:33:43;;;;;;;7.22;4.05;;;32.70;63.10;;;;;;6247919;28;20061;-81
2023/07/15 15:36:46;;;;;;;9.68;3.33;;;32.90;62.70;;;;;;6248670;28;20076;-82
2023/07/15 15:39:47;;;;;;;5.40;4.00;;;33.30;62.10;;;;;;6247221;28;20064;-81
2023/07/15 15:42:49;;;;;;;8.27;3.03;;;33.50;61.70;;;;;;6250490;28;20416;-82
2023/07/15 15:45:52;;;;;;;6.93;3.20;;;33.60;61.40;;;;;;6246059;28;20079;-82
2023/07/15 15:48:53;;;;;;;4.63;3.83;;;33.80;61.00;;;;;;6247097;28;20175;-82